sensor_id;sensor_type;location;lat;lon;timestamp;temperature;humidity
32522;DHT22;18963;51.504;5.316;2023-07-16T00:02:09;14.10;99.90
32522;DHT22;18963;51.504;5.316;2023-07-16T00:04:35;14.00;99.90
32522;DHT22;18963;51.504;5.316;2023-07-16T00:07:00;14.00;99.90
32522;DHT22;18963;51.504;5.316;2023-07-16T00:09:26;13.90;99.90
32522;DHT22;18963;51.504;5.316;2023-07-16T00:11:52;13.90;99.90
32522;DHT22;18963;51.504;5.316;2023-07-16T00:14:17;13.90;99.90
32522;DHT22;18963;51.504;5.316;2023-07-16T00:16:43;13.80;99.90
32522;DHT22;18963;51.504;5.316;2023-07-16T00:19:11;13.70;99.90
32522;DHT22;18963;51.504;5.316;2023-07-16T00:21:37;13.70;99.90
32522;DHT22;18963;51.504;5.316;2023-07-16T00:24:04;13.70;99.90
32522;DHT22;18963;51.504;5.316;2023-07-16T00:26:29;13.70;99.90
32522;DHT22;18963;51.504;5.316;2023-07-16T00:28:55;13.70;99.90
32522;DHT22;18963;51.504;5.316;2023-07-16T00:31:20;13.70;99.90
32522;DHT22;18963;51.504;5.316;2023-07-16T00:33:46;13.70;99.90
32522;DHT22;18963;51.504;5.316;2023-07-16T00:36:11;13.80;99.90
32522;DHT22;18963;51.504;5.316;2023-07-16T00:38:37;13.80;99.90
32522;DHT22;18963;51.504;5.316;2023-07-16T00:41:02;13.80;99.90
32522;DHT22;18963;51.504;5.316;2023-07-16T00:43:28;13.80;99.90
32522;DHT22;18963;51.504;5.316;2023-07-16T00:45:53;13.80;99.90
32522;DHT22;18963;51.504;5.316;2023-07-16T00:48:19;13.80;99.90
32522;DHT22;18963;51.504;5.316;2023-07-16T00:50:45;13.70;99.90
32522;DHT22;18963;51.504;5.316;2023-07-16T00:53:10;13.70;99.90
32522;DHT22;18963;51.504;5.316;2023-07-16T00:55:37;13.60;99.90
32522;DHT22;18963;51.504;5.316;2023-07-16T00:58:04;13.60;99.90
32522;DHT22;18963;51.504;5.316;2023-07-16T01:00:34;13.60;99.90
32522;DHT22;18963;51.504;5.316;2023-07-16T01:03:03;13.60;99.90
32522;DHT22;18963;51.504;5.316;2023-07-16T01:05:31;13.50;99.90
32522;DHT22;18963;51.504;5.316;2023-07-16T01:08:00;13.50;99.90
32522;DHT22;18963;51.504;5.316;2023-07-16T01:10:27;13.50;99.90
32522;DHT22;18963;51.504;5.316;2023-07-16T01:12:53;13.50;99.90
32522;DHT22;18963;51.504;5.316;2023-07-16T01:15:20;13.40;99.90
32522;DHT22;18963;51.504;5.316;2023-07-16T01:17:45;13.40;99.90
32522;DHT22;18963;51.504;5.316;2023-07-16T01:20:11;13.30;99.90
32522;DHT22;18963;51.504;5.316;2023-07-16T01:22:52;13.30;99.90
32522;DHT22;18963;51.504;5.316;2023-07-16T01:30:41;13.20;99.90
32522;DHT22;18963;51.504;5.316;2023-07-16T01:33:08;13.20;99.90
32522;DHT22;18963;51.504;5.316;2023-07-16T01:35:35;13.30;99.90
32522;DHT22;18963;51.504;5.316;2023-07-16T01:38:01;13.30;99.90
32522;DHT22;18963;51.504;5.316;2023-07-16T01:40:27;13.30;99.90
32522;DHT22;18963;51.504;5.316;2023-07-16T01:42:52;13.30;99.90
32522;DHT22;18963;51.504;5.316;2023-07-16T01:45:18;13.30;99.90
32522;DHT22;18963;51.504;5.316;2023-07-16T01:50:12;13.40;99.90
32522;DHT22;18963;51.504;5.316;2023-07-16T01:52:37;13.40;99.90
32522;DHT22;18963;51.504;5.316;2023-07-16T01:55:03;13.40;99.90
32522;DHT22;18963;51.504;5.316;2023-07-16T01:57:28;13.40;99.90
32522;DHT22;18963;51.504;5.316;2023-07-16T01:59:54;13.40;99.90
32522;DHT22;18963;51.504;5.316;2023-07-16T02:02:19;13.40;99.90
32522;DHT22;18963;51.504;5.316;2023-07-16T02:04:45;13.50;99.90
32522;DHT22;18963;51.504;5.316;2023-07-16T02:07:10;13.50;99.90
32522;DHT22;18963;51.504;5.316;2023-07-16T02:09:36;13.50;99.90
32522;DHT22;18963;51.504;5.316;2023-07-16T02:12:01;13.50;99.90
32522;DHT22;18963;51.504;5.316;2023-07-16T02:14:27;13.50;99.90
32522;DHT22;18963;51.504;5.316;2023-07-16T02:16:52;13.50;99.90
32522;DHT22;18963;51.504;5.316;2023-07-16T02:19:18;13.60;99.90
32522;DHT22;18963;51.504;5.316;2023-07-16T02:21:43;13.60;99.90
32522;DHT22;18963;51.504;5.316;2023-07-16T02:24:09;13.80;99.90
32522;DHT22;18963;51.504;5.316;2023-07-16T02:26:34;13.80;99.90
32522;DHT22;18963;51.504;5.316;2023-07-16T02:29:00;13.90;99.90
32522;DHT22;18963;51.504;5.316;2023-07-16T02:31:25;13.90;99.90
32522;DHT22;18963;51.504;5.316;2023-07-16T02:33:51;13.90;99.90
32522;DHT22;18963;51.504;5.316;2023-07-16T02:36:17;13.90;99.90
32522;DHT22;18963;51.504;5.316;2023-07-16T02:38:42;13.90;99.90
32522;DHT22;18963;51.504;5.316;2023-07-16T02:41:08;13.90;99.90
32522;DHT22;18963;51.504;5.316;2023-07-16T02:43:33;13.90;99.90
32522;DHT22;18963;51.504;5.316;2023-07-16T02:45:58;13.90;99.90
32522;DHT22;18963;51.504;5.316;2023-07-16T02:48:24;13.90;99.90
32522;DHT22;18963;51.504;5.316;2023-07-16T02:50:49;13.90;99.90
32522;DHT22;18963;51.504;5.316;2023-07-16T02:53:15;13.90;99.90
32522;DHT22;18963;51.504;5.316;2023-07-16T02:55:40;13.90;99.90
32522;DHT22;18963;51.504;5.316;2023-07-16T02:58:06;13.90;99.90
32522;DHT22;18963;51.504;5.316;2023-07-16T03:00:31;13.90;99.90
32522;DHT22;18963;51.504;5.316;2023-07-16T03:02:57;13.90;99.90
32522;DHT22;18963;51.504;5.316;2023-07-16T03:05:24;13.90;99.90
32522;DHT22;18963;51.504;5.316;2023-07-16T03:07:50;13.90;99.90
32522;DHT22;18963;51.504;5.316;2023-07-16T03:10:15;13.90;99.90
32522;DHT22;18963;51.504;5.316;2023-07-16T03:12:41;13.90;99.90
32522;DHT22;18963;51.504;5.316;2023-07-16T03:15:06;13.90;99.90
32522;DHT22;18963;51.504;5.316;2023-07-16T03:17:32;13.90;99.90
32522;DHT22;18963;51.504;5.316;2023-07-16T03:19:58;13.90;99.90
32522;DHT22;18963;51.504;5.316;2023-07-16T03:22:23;13.90;99.90
32522;DHT22;18963;51.504;5.316;2023-07-16T03:24:49;13.80;99.90
32522;DHT22;18963;51.504;5.316;2023-07-16T03:27:14;13.80;99.90
32522;DHT22;18963;51.504;5.316;2023-07-16T03:29:40;13.80;99.90
32522;DHT22;18963;51.504;5.316;2023-07-16T03:32:05;13.70;99.90
32522;DHT22;18963;51.504;5.316;2023-07-16T03:34:31;13.70;99.90
32522;DHT22;18963;51.504;5.316;2023-07-16T03:36:56;13.70;99.90
32522;DHT22;18963;51.504;5.316;2023-07-16T03:39:22;13.60;99.90
32522;DHT22;18963;51.504;5.316;2023-07-16T03:41:47;13.60;99.90
32522;DHT22;18963;51.504;5.316;2023-07-16T03:44:13;13.60;99.90
32522;DHT22;18963;51.504;5.316;2023-07-16T03:46:38;13.50;99.90
32522;DHT22;18963;51.504;5.316;2023-07-16T03:49:06;13.50;99.90
32522;DHT22;18963;51.504;5.316;2023-07-16T03:51:31;13.40;99.90
32522;DHT22;18963;51.504;5.316;2023-07-16T03:53:57;13.40;99.90
32522;DHT22;18963;51.504;5.316;2023-07-16T03:56:22;13.40;99.90
32522;DHT22;18963;51.504;5.316;2023-07-16T03:58:48;13.40;99.90
32522;DHT22;18963;51.504;5.316;2023-07-16T04:01:13;13.40;99.90
32522;DHT22;18963;51.504;5.316;2023-07-16T04:03:39;13.40;99.90
32522;DHT22;18963;51.504;5.316;2023-07-16T04:06:05;13.40;99.90
32522;DHT22;18963;51.504;5.316;2023-07-16T04:08:31;13.30;99.90
32522;DHT22;18963;51.504;5.316;2023-07-16T04:10:56;13.30;99.90
32522;DHT22;18963;51.504;5.316;2023-07-16T04:13:22;13.40;99.90
32522;DHT22;18963;51.504;5.316;2023-07-16T04:15:47;13.40;99.90
32522;DHT22;18963;51.504;5.316;2023-07-16T04:18:13;13.40;99.90
32522;DHT22;18963;51.504;5.316;2023-07-16T04:20:38;13.40;99.90
32522;DHT22;18963;51.504;5.316;2023-07-16T04:23:04;13.40;99.90
32522;DHT22;18963;51.504;5.316;2023-07-16T04:25:29;13.40;99.90
32522;DHT22;18963;51.504;5.316;2023-07-16T04:27:55;13.40;99.90
32522;DHT22;18963;51.504;5.316;2023-07-16T04:30:21;13.40;99.90
32522;DHT22;18963;51.504;5.316;2023-07-16T04:32:47;13.40;99.90
32522;DHT22;18963;51.504;5.316;2023-07-16T04:35:12;13.40;99.90
32522;DHT22;18963;51.504;5.316;2023-07-16T04:37:38;13.40;99.90
32522;DHT22;18963;51.504;5.316;2023-07-16T04:40:03;13.40;99.90
32522;DHT22;18963;51.504;5.316;2023-07-16T04:42:29;13.40;99.90
32522;DHT22;18963;51.504;5.316;2023-07-16T04:44:55;13.40;99.90
32522;DHT22;18963;51.504;5.316;2023-07-16T04:47:20;13.40;99.90
32522;DHT22;18963;51.504;5.316;2023-07-16T04:49:46;13.40;99.90
32522;DHT22;18963;51.504;5.316;2023-07-16T04:52:11;13.40;99.90
32522;DHT22;18963;51.504;5.316;2023-07-16T04:54:38;13.40;99.90
32522;DHT22;18963;51.504;5.316;2023-07-16T04:57:05;13.40;99.90
32522;DHT22;18963;51.504;5.316;2023-07-16T04:59:31;13.40;99.90
32522;DHT22;18963;51.504;5.316;2023-07-16T05:01:56;13.50;99.90
32522;DHT22;18963;51.504;5.316;2023-07-16T05:04:22;13.50;99.90
32522;DHT22;18963;51.504;5.316;2023-07-16T05:06:47;13.60;99.90
32522;DHT22;18963;51.504;5.316;2023-07-16T05:09:13;13.60;99.90
32522;DHT22;18963;51.504;5.316;2023-07-16T05:11:38;13.60;99.90
32522;DHT22;18963;51.504;5.316;2023-07-16T05:14:04;13.70;99.90
32522;DHT22;18963;51.504;5.316;2023-07-16T05:16:29;13.80;99.90
32522;DHT22;18963;51.504;5.316;2023-07-16T05:18:55;13.80;99.90
32522;DHT22;18963;51.504;5.316;2023-07-16T05:21:20;13.90;99.90
32522;DHT22;18963;51.504;5.316;2023-07-16T05:23:46;14.00;99.90
32522;DHT22;18963;51.504;5.316;2023-07-16T05:26:11;14.10;99.90
32522;DHT22;18963;51.504;5.316;2023-07-16T05:28:37;14.20;99.90
32522;DHT22;18963;51.504;5.316;2023-07-16T05:31:03;14.40;99.90
32522;DHT22;18963;51.504;5.316;2023-07-16T05:33:28;14.50;99.90
32522;DHT22;18963;51.504;5.316;2023-07-16T05:35:54;14.60;99.90
32522;DHT22;18963;51.504;5.316;2023-07-16T05:38:19;14.70;99.90
32522;DHT22;18963;51.504;5.316;2023-07-16T05:40:45;14.90;99.90
32522;DHT22;18963;51.504;5.316;2023-07-16T05:43:10;15.00;99.90
32522;DHT22;18963;51.504;5.316;2023-07-16T05:45:36;15.20;99.90
32522;DHT22;18963;51.504;5.316;2023-07-16T05:48:02;15.30;99.90
32522;DHT22;18963;51.504;5.316;2023-07-16T05:50:27;15.50;99.90
32522;DHT22;18963;51.504;5.316;2023-07-16T05:52:53;15.60;99.90
32522;DHT22;18963;51.504;5.316;2023-07-16T05:55:18;15.80;99.90
32522;DHT22;18963;51.504;5.316;2023-07-16T05:57:44;15.90;99.90
32522;DHT22;18963;51.504;5.316;2023-07-16T06:00:09;16.10;99.90
32522;DHT22;18963;51.504;5.316;2023-07-16T06:02:35;16.20;99.90
32522;DHT22;18963;51.504;5.316;2023-07-16T06:05:01;16.50;99.90
32522;DHT22;18963;51.504;5.316;2023-07-16T06:07:26;16.60;99.90
32522;DHT22;18963;51.504;5.316;2023-07-16T06:09:52;16.80;99.90
32522;DHT22;18963;51.504;5.316;2023-07-16T06:12:17;16.90;99.90
32522;DHT22;18963;51.504;5.316;2023-07-16T06:14:43;17.10;99.90
32522;DHT22;18963;51.504;5.316;2023-07-16T06:17:08;17.20;99.90
32522;DHT22;18963;51.504;5.316;2023-07-16T06:19:34;17.30;99.90
32522;DHT22;18963;51.504;5.316;2023-07-16T06:21:59;17.60;99.90
32522;DHT22;18963;51.504;5.316;2023-07-16T06:24:25;17.70;99.90
32522;DHT22;18963;51.504;5.316;2023-07-16T06:26:50;17.90;99.90
32522;DHT22;18963;51.504;5.316;2023-07-16T06:29:16;18.10;99.90
32522;DHT22;18963;51.504;5.316;2023-07-16T06:31:54;18.30;99.90
32522;DHT22;18963;51.504;5.316;2023-07-16T06:34:19;18.40;99.90
32522;DHT22;18963;51.504;5.316;2023-07-16T06:36:45;18.60;99.90
32522;DHT22;18963;51.504;5.316;2023-07-16T06:39:10;18.70;99.90
32522;DHT22;18963;51.504;5.316;2023-07-16T06:41:36;18.90;99.90
32522;DHT22;18963;51.504;5.316;2023-07-16T06:44:01;19.00;99.90
32522;DHT22;18963;51.504;5.316;2023-07-16T06:46:27;19.20;99.90
32522;DHT22;18963;51.504;5.316;2023-07-16T06:48:52;19.30;99.90
32522;DHT22;18963;51.504;5.316;2023-07-16T06:51:18;19.50;99.90
32522;DHT22;18963;51.504;5.316;2023-07-16T06:53:43;19.60;99.90
32522;DHT22;18963;51.504;5.316;2023-07-16T06:56:09;19.70;99.90
32522;DHT22;18963;51.504;5.316;2023-07-16T06:58:34;19.80;99.90
32522;DHT22;18963;51.504;5.316;2023-07-16T07:01:00;19.90;99.90
32522;DHT22;18963;51.504;5.316;2023-07-16T07:03:26;20.10;99.90
32522;DHT22;18963;51.504;5.316;2023-07-16T07:05:51;20.20;99.90
32522;DHT22;18963;51.504;5.316;2023-07-16T07:08:17;20.30;99.90
32522;DHT22;18963;51.504;5.316;2023-07-16T07:10:42;20.40;99.90
32522;DHT22;18963;51.504;5.316;2023-07-16T07:13:08;20.60;99.90
32522;DHT22;18963;51.504;5.316;2023-07-16T07:15:33;20.60;99.90
32522;DHT22;18963;51.504;5.316;2023-07-16T07:17:59;20.70;99.90
32522;DHT22;18963;51.504;5.316;2023-07-16T07:20:24;20.90;99.90
32522;DHT22;18963;51.504;5.316;2023-07-16T07:22:50;20.90;99.90
32522;DHT22;18963;51.504;5.316;2023-07-16T07:25:15;20.90;99.90
32522;DHT22;18963;51.504;5.316;2023-07-16T07:27:41;21.00;99.90
32522;DHT22;18963;51.504;5.316;2023-07-16T07:30:06;21.00;99.90
32522;DHT22;18963;51.504;5.316;2023-07-16T07:32:32;21.00;99.90
32522;DHT22;18963;51.504;5.316;2023-07-16T07:34:58;21.20;99.90
32522;DHT22;18963;51.504;5.316;2023-07-16T07:37:23;21.20;99.90
32522;DHT22;18963;51.504;5.316;2023-07-16T07:39:51;21.10;99.90
32522;DHT22;18963;51.504;5.316;2023-07-16T07:42:17;21.10;99.90
32522;DHT22;18963;51.504;5.316;2023-07-16T07:44:42;21.10;99.90
32522;DHT22;18963;51.504;5.316;2023-07-16T07:47:08;21.00;99.90
32522;DHT22;18963;51.504;5.316;2023-07-16T07:49:34;21.00;99.90
32522;DHT22;18963;51.504;5.316;2023-07-16T07:51:59;21.10;99.90
32522;DHT22;18963;51.504;5.316;2023-07-16T07:54:25;21.30;99.90
32522;DHT22;18963;51.504;5.316;2023-07-16T07:56:50;21.50;99.90
32522;DHT22;18963;51.504;5.316;2023-07-16T07:59:16;21.70;99.90
32522;DHT22;18963;51.504;5.316;2023-07-16T08:01:42;21.60;99.90
32522;DHT22;18963;51.504;5.316;2023-07-16T08:04:07;21.70;99.90
32522;DHT22;18963;51.504;5.316;2023-07-16T08:06:33;21.70;99.90
32522;DHT22;18963;51.504;5.316;2023-07-16T08:08:59;21.70;99.90
32522;DHT22;18963;51.504;5.316;2023-07-16T08:11:24;21.90;99.90
32522;DHT22;18963;51.504;5.316;2023-07-16T08:13:50;21.90;99.90
32522;DHT22;18963;51.504;5.316;2023-07-16T08:16:15;22.10;99.90
32522;DHT22;18963;51.504;5.316;2023-07-16T08:18:41;22.30;99.90
32522;DHT22;18963;51.504;5.316;2023-07-16T08:21:06;22.60;99.90
32522;DHT22;18963;51.504;5.316;2023-07-16T08:23:32;22.70;99.90
32522;DHT22;18963;51.504;5.316;2023-07-16T08:25:57;22.70;99.90
32522;DHT22;18963;51.504;5.316;2023-07-16T08:28:23;22.70;99.90
32522;DHT22;18963;51.504;5.316;2023-07-16T08:30:50;22.70;99.90
32522;DHT22;18963;51.504;5.316;2023-07-16T08:33:15;22.70;99.90
32522;DHT22;18963;51.504;5.316;2023-07-16T08:35:41;22.80;99.90
32522;DHT22;18963;51.504;5.316;2023-07-16T08:38:06;22.80;99.90
32522;DHT22;18963;51.504;5.316;2023-07-16T08:40:35;23.00;99.90
32522;DHT22;18963;51.504;5.316;2023-07-16T08:43:01;23.30;99.90
32522;DHT22;18963;51.504;5.316;2023-07-16T08:45:28;23.40;99.90
32522;DHT22;18963;51.504;5.316;2023-07-16T08:47:54;23.50;99.30
32522;DHT22;18963;51.504;5.316;2023-07-16T08:50:21;23.60;97.40
32522;DHT22;18963;51.504;5.316;2023-07-16T08:52:47;23.80;99.90
32522;DHT22;18963;51.504;5.316;2023-07-16T08:55:12;24.00;99.80
32522;DHT22;18963;51.504;5.316;2023-07-16T08:57:38;24.10;99.20
32522;DHT22;18963;51.504;5.316;2023-07-16T09:00:05;24.30;99.90
32522;DHT22;18963;51.504;5.316;2023-07-16T09:02:31;24.60;99.70
32522;DHT22;18963;51.504;5.316;2023-07-16T09:04:56;24.80;96.50
32522;DHT22;18963;51.504;5.316;2023-07-16T09:07:22;24.70;96.40
32522;DHT22;18963;51.504;5.316;2023-07-16T09:09:54;24.50;96.00
32522;DHT22;18963;51.504;5.316;2023-07-16T09:12:20;24.50;97.90
32522;DHT22;18963;51.504;5.316;2023-07-16T09:14:48;24.70;97.60
32522;DHT22;18963;51.504;5.316;2023-07-16T09:17:14;24.90;95.70
32522;DHT22;18963;51.504;5.316;2023-07-16T09:19:45;24.70;94.40
32522;DHT22;18963;51.504;5.316;2023-07-16T09:22:10;24.60;96.60
32522;DHT22;18963;51.504;5.316;2023-07-16T09:24:36;24.50;96.20
32522;DHT22;18963;51.504;5.316;2023-07-16T09:27:01;24.60;96.10
32522;DHT22;18963;51.504;5.316;2023-07-16T09:29:27;24.50;95.00
32522;DHT22;18963;51.504;5.316;2023-07-16T09:31:59;24.20;95.80
32522;DHT22;18963;51.504;5.316;2023-07-16T09:34:26;23.80;95.20
32522;DHT22;18963;51.504;5.316;2023-07-16T09:36:52;23.50;96.20
32522;DHT22;18963;51.504;5.316;2023-07-16T09:39:18;23.30;97.10
32522;DHT22;18963;51.504;5.316;2023-07-16T09:41:49;23.20;98.30
32522;DHT22;18963;51.504;5.316;2023-07-16T09:44:15;23.20;98.30
32522;DHT22;18963;51.504;5.316;2023-07-16T09:46:41;23.00;98.90
32522;DHT22;18963;51.504;5.316;2023-07-16T09:49:07;22.90;98.60
32522;DHT22;18963;51.504;5.316;2023-07-16T09:51:32;22.70;99.00
32522;DHT22;18963;51.504;5.316;2023-07-16T09:54:03;22.80;99.60
32522;DHT22;18963;51.504;5.316;2023-07-16T09:56:34;22.90;98.90
32522;DHT22;18963;51.504;5.316;2023-07-16T09:59:00;22.90;97.80
32522;DHT22;18963;51.504;5.316;2023-07-16T10:01:26;22.90;98.00
32522;DHT22;18963;51.504;5.316;2023-07-16T10:03:52;22.90;98.60
32522;DHT22;18963;51.504;5.316;2023-07-16T10:06:17;23.00;99.10
32522;DHT22;18963;51.504;5.316;2023-07-16T10:08:48;23.20;98.50
32522;DHT22;18963;51.504;5.316;2023-07-16T10:11:17;23.20;96.90
32522;DHT22;18963;51.504;5.316;2023-07-16T10:13:43;23.10;97.50
32522;DHT22;18963;51.504;5.316;2023-07-16T10:16:19;23.00;97.90
32522;DHT22;18963;51.504;5.316;2023-07-16T10:18:49;23.10;99.90
32522;DHT22;18963;51.504;5.316;2023-07-16T10:21:21;23.00;99.10
32522;DHT22;18963;51.504;5.316;2023-07-16T10:23:47;23.00;98.60
32522;DHT22;18963;51.504;5.316;2023-07-16T10:26:25;23.00;98.50
32522;DHT22;18963;51.504;5.316;2023-07-16T10:28:51;23.00;99.20
32522;DHT22;18963;51.504;5.316;2023-07-16T10:31:17;23.10;99.90
32522;DHT22;18963;51.504;5.316;2023-07-16T10:33:43;23.30;99.30
32522;DHT22;18963;51.504;5.316;2023-07-16T10:36:08;23.70;98.70
32522;DHT22;18963;51.504;5.316;2023-07-16T10:38:41;24.00;98.80
32522;DHT22;18963;51.504;5.316;2023-07-16T10:41:09;24.20;96.70
32522;DHT22;18963;51.504;5.316;2023-07-16T10:43:35;24.20;96.10
32522;DHT22;18963;51.504;5.316;2023-07-16T10:46:01;24.10;96.00
32522;DHT22;18963;51.504;5.316;2023-07-16T10:48:27;24.10;97.50
32522;DHT22;18963;51.504;5.316;2023-07-16T10:50:53;24.10;95.20
32522;DHT22;18963;51.504;5.316;2023-07-16T10:53:19;23.90;96.50
32522;DHT22;18963;51.504;5.316;2023-07-16T10:55:44;23.80;97.00
32522;DHT22;18963;51.504;5.316;2023-07-16T10:58:10;23.70;95.80
32522;DHT22;18963;51.504;5.316;2023-07-16T11:00:39;23.60;97.00
32522;DHT22;18963;51.504;5.316;2023-07-16T11:03:04;23.30;96.20
32522;DHT22;18963;51.504;5.316;2023-07-16T11:05:30;23.10;96.80
32522;DHT22;18963;51.504;5.316;2023-07-16T11:07:56;22.80;97.10
32522;DHT22;18963;51.504;5.316;2023-07-16T11:10:22;22.60;97.40
32522;DHT22;18963;51.504;5.316;2023-07-16T11:12:51;22.50;98.40
32522;DHT22;18963;51.504;5.316;2023-07-16T11:15:18;22.40;98.40
32522;DHT22;18963;51.504;5.316;2023-07-16T11:17:48;22.30;98.70
32522;DHT22;18963;51.504;5.316;2023-07-16T11:20:13;22.40;98.80
32522;DHT22;18963;51.504;5.316;2023-07-16T11:22:39;22.30;99.40
32522;DHT22;18963;51.504;5.316;2023-07-16T11:25:10;22.20;99.40
32522;DHT22;18963;51.504;5.316;2023-07-16T11:27:36;22.40;99.90
32522;DHT22;18963;51.504;5.316;2023-07-16T11:30:01;22.60;99.90
32522;DHT22;18963;51.504;5.316;2023-07-16T11:34:56;23.20;99.00
32522;DHT22;18963;51.504;5.316;2023-07-16T11:37:23;23.30;97.50
32522;DHT22;18963;51.504;5.316;2023-07-16T11:39:49;23.40;99.20
32522;DHT22;18963;51.504;5.316;2023-07-16T11:42:18;23.50;98.00
32522;DHT22;18963;51.504;5.316;2023-07-16T11:44:48;23.50;98.40
32522;DHT22;18963;51.504;5.316;2023-07-16T11:47:13;23.60;97.40
32522;DHT22;18963;51.504;5.316;2023-07-16T11:49:39;23.60;97.10
32522;DHT22;18963;51.504;5.316;2023-07-16T11:52:04;23.60;96.50
32522;DHT22;18963;51.504;5.316;2023-07-16T11:54:31;23.40;96.50
32522;DHT22;18963;51.504;5.316;2023-07-16T11:56:57;23.20;97.30
32522;DHT22;18963;51.504;5.316;2023-07-16T11:59:22;22.80;98.10
32522;DHT22;18963;51.504;5.316;2023-07-16T12:01:48;22.50;99.90
32522;DHT22;18963;51.504;5.316;2023-07-16T12:04:15;22.40;99.90
32522;DHT22;18963;51.504;5.316;2023-07-16T12:06:40;22.60;99.90
32522;DHT22;18963;51.504;5.316;2023-07-16T12:09:06;22.90;99.90
32522;DHT22;18963;51.504;5.316;2023-07-16T12:11:31;23.00;99.90
32522;DHT22;18963;51.504;5.316;2023-07-16T12:13:57;23.30;99.90
32522;DHT22;18963;51.504;5.316;2023-07-16T12:16:22;23.90;99.10
32522;DHT22;18963;51.504;5.316;2023-07-16T12:18:48;24.30;98.10
32522;DHT22;18963;51.504;5.316;2023-07-16T12:21:13;24.60;97.10
32522;DHT22;18963;51.504;5.316;2023-07-16T12:23:39;24.30;96.40
32522;DHT22;18963;51.504;5.316;2023-07-16T12:26:04;24.00;97.40
32522;DHT22;18963;51.504;5.316;2023-07-16T12:28:30;23.60;98.50
32522;DHT22;18963;51.504;5.316;2023-07-16T12:30:55;23.00;99.90
32522;DHT22;18963;51.504;5.316;2023-07-16T12:33:20;22.80;99.90
32522;DHT22;18963;51.504;5.316;2023-07-16T12:35:46;22.80;99.90
32522;DHT22;18963;51.504;5.316;2023-07-16T12:38:12;23.10;99.90
32522;DHT22;18963;51.504;5.316;2023-07-16T12:40:38;23.40;99.40
32522;DHT22;18963;51.504;5.316;2023-07-16T12:43:06;23.60;99.00
32522;DHT22;18963;51.504;5.316;2023-07-16T12:45:32;23.80;98.80
32522;DHT22;18963;51.504;5.316;2023-07-16T12:47:57;23.80;98.60
32522;DHT22;18963;51.504;5.316;2023-07-16T12:50:23;23.90;97.30
32522;DHT22;18963;51.504;5.316;2023-07-16T12:52:51;23.80;97.20
32522;DHT22;18963;51.504;5.316;2023-07-16T12:55:17;23.70;96.70
32522;DHT22;18963;51.504;5.316;2023-07-16T12:57:42;23.60;96.20
32522;DHT22;18963;51.504;5.316;2023-07-16T13:00:08;23.50;95.80
32522;DHT22;18963;51.504;5.316;2023-07-16T13:02:35;23.60;97.20
32522;DHT22;18963;51.504;5.316;2023-07-16T13:05:00;23.60;95.40
32522;DHT22;18963;51.504;5.316;2023-07-16T13:07:26;23.60;94.50
32522;DHT22;18963;51.504;5.316;2023-07-16T13:09:51;23.60;93.70
32522;DHT22;18963;51.504;5.316;2023-07-16T13:12:17;23.60;94.80
32522;DHT22;18963;51.504;5.316;2023-07-16T13:14:42;23.70;95.70
32522;DHT22;18963;51.504;5.316;2023-07-16T13:17:08;23.90;95.10
32522;DHT22;18963;51.504;5.316;2023-07-16T13:19:33;24.00;94.40
32522;DHT22;18963;51.504;5.316;2023-07-16T13:21:59;24.10;95.00
32522;DHT22;18963;51.504;5.316;2023-07-16T13:24:25;24.10;93.60
32522;DHT22;18963;51.504;5.316;2023-07-16T13:26:50;24.20;93.20
32522;DHT22;18963;51.504;5.316;2023-07-16T13:29:16;24.30;94.80
32522;DHT22;18963;51.504;5.316;2023-07-16T13:31:41;24.60;93.70
32522;DHT22;18963;51.504;5.316;2023-07-16T13:34:07;24.60;92.40
32522;DHT22;18963;51.504;5.316;2023-07-16T13:36:32;24.60;92.70
32522;DHT22;18963;51.504;5.316;2023-07-16T13:38:58;24.60;93.20
32522;DHT22;18963;51.504;5.316;2023-07-16T13:41:23;24.50;92.40
32522;DHT22;18963;51.504;5.316;2023-07-16T13:43:49;24.30;92.40
32522;DHT22;18963;51.504;5.316;2023-07-16T13:46:14;24.20;93.60
32522;DHT22;18963;51.504;5.316;2023-07-16T13:48:40;24.10;93.10
32522;DHT22;18963;51.504;5.316;2023-07-16T13:51:05;24.10;93.10
32522;DHT22;18963;51.504;5.316;2023-07-16T13:53:31;24.00;93.90
32522;DHT22;18963;51.504;5.316;2023-07-16T13:55:56;24.00;93.40
32522;DHT22;18963;51.504;5.316;2023-07-16T13:58:22;24.00;93.10
32522;DHT22;18963;51.504;5.316;2023-07-16T14:00:47;24.00;93.40
32522;DHT22;18963;51.504;5.316;2023-07-16T14:03:13;23.80;93.60
32522;DHT22;18963;51.504;5.316;2023-07-16T14:05:39;23.70;93.10
32522;DHT22;18963;51.504;5.316;2023-07-16T14:08:05;23.50;93.10
32522;DHT22;18963;51.504;5.316;2023-07-16T14:10:31;23.40;93.60
32522;DHT22;18963;51.504;5.316;2023-07-16T14:12:59;23.20;93.30
32522;DHT22;18963;51.504;5.316;2023-07-16T14:15:24;23.00;94.00
32522;DHT22;18963;51.504;5.316;2023-07-16T14:17:50;23.00;95.90
32522;DHT22;18963;51.504;5.316;2023-07-16T14:20:15;23.10;95.50
32522;DHT22;18963;51.504;5.316;2023-07-16T14:22:41;23.30;94.90
32522;DHT22;18963;51.504;5.316;2023-07-16T14:25:06;23.40;94.70
32522;DHT22;18963;51.504;5.316;2023-07-16T14:27:32;23.40;95.20
32522;DHT22;18963;51.504;5.316;2023-07-16T14:29:58;23.40;95.20
32522;DHT22;18963;51.504;5.316;2023-07-16T14:32:23;23.30;94.60
32522;DHT22;18963;51.504;5.316;2023-07-16T14:34:49;23.30;95.40
32522;DHT22;18963;51.504;5.316;2023-07-16T14:37:15;23.20;95.30
32522;DHT22;18963;51.504;5.316;2023-07-16T14:39:40;23.10;96.20
32522;DHT22;18963;51.504;5.316;2023-07-16T14:42:06;23.20;95.70
32522;DHT22;18963;51.504;5.316;2023-07-16T14:44:32;23.30;95.90
32522;DHT22;18963;51.504;5.316;2023-07-16T14:46:57;23.40;94.60
32522;DHT22;18963;51.504;5.316;2023-07-16T14:49:23;23.40;94.30
32522;DHT22;18963;51.504;5.316;2023-07-16T14:51:49;23.20;93.00
32522;DHT22;18963;51.504;5.316;2023-07-16T14:54:14;23.20;93.40
32522;DHT22;18963;51.504;5.316;2023-07-16T14:56:40;23.00;93.90
32522;DHT22;18963;51.504;5.316;2023-07-16T14:59:05;23.00;94.00
32522;DHT22;18963;51.504;5.316;2023-07-16T15:01:31;22.90;93.20
32522;DHT22;18963;51.504;5.316;2023-07-16T15:03:56;22.70;93.40
32522;DHT22;18963;51.504;5.316;2023-07-16T15:06:22;22.60;93.60
32522;DHT22;18963;51.504;5.316;2023-07-16T15:08:47;22.40;94.70
32522;DHT22;18963;51.504;5.316;2023-07-16T15:11:13;22.30;94.50
32522;DHT22;18963;51.504;5.316;2023-07-16T15:13:39;22.20;94.10
32522;DHT22;18963;51.504;5.316;2023-07-16T15:16:04;22.20;94.80
32522;DHT22;18963;51.504;5.316;2023-07-16T15:18:30;22.20;94.80
32522;DHT22;18963;51.504;5.316;2023-07-16T15:20:56;22.30;95.90
32522;DHT22;18963;51.504;5.316;2023-07-16T15:23:25;22.30;95.50
32522;DHT22;18963;51.504;5.316;2023-07-16T15:25:51;22.30;95.70
32522;DHT22;18963;51.504;5.316;2023-07-16T15:28:18;22.40;95.70
32522;DHT22;18963;51.504;5.316;2023-07-16T15:30:43;22.30;94.90
32522;DHT22;18963;51.504;5.316;2023-07-16T15:33:09;22.30;98.20